Latest Weather Observations for Archerfield

IDQ60801

Issued at 2:02 pm EST Sunday 5 July 2015 (issued every 30 minutes, with the page automatically refreshed every 10 minutes)

About weather observations | Map of weather stations | Latest weather observations for QLD | Other Formats
Station Details ID: 040211 Name: ARCHERFIELD AIRPORT Lat: -27.57 Lon: 153.01 Height: 12.5 m
Data from the previous 72 hours. | See also: Recent months at Archerfield
Date/Time
EST
Temp
°C
App
Temp
°C
Dew
Point
Rel
Hum
%
Delta-T
°C
Wind Press
QNH
hPa
Press
MSL
hPa
Rain
since 9 am
mm
Dir
 
Spd
km/h
Gust
km/h
Spd
kts
Gust
kts
05/02:00pm 22.5 19.4 9.0 42 7.2 WNW 15 22 8 12 1019.7 1019.7 0.0
05/01:30pm 22.2 17.8 7.2 38 7.7 W 20 32 11 17 1019.9 1019.9 0.0
05/01:00pm 20.8 16.4 6.7 40 7.1 WNW 19 26 10 14 1020.3 1020.3 0.0
05/12:30pm 21.6 19.9 11.3 52 5.7 W 11 20 6 11 1020.8 1020.8 0.0
05/12:00pm 20.7 19.9 11.6 56 5.0 WNW 7 15 4 8 1021.5 1021.5 0.0
05/11:30am 19.3 18.4 11.3 60 4.4 W 7 13 4 7 1022.0 1022.0 0.0
05/11:00am 19.1 18.0 11.9 63 4.0 WSW 9 15 5 8 1022.6 1022.6 0.0
05/10:00am 16.8 15.6 11.7 72 2.8 W 9 13 5 7 1023.2 1023.2 0.0
05/09:30am 15.2 14.3 11.2 77 2.1 W 7 9 4 5 1023.3 1023.3 0.0
05/09:00am 14.3 13.3 11.1 81 1.7 W 7 13 4 7 1023.2 1023.2 0.0
05/08:00am 11.3 11.4 10.0 92 0.7 CALM 0 6 0 3 1022.9 1022.9 0.0
05/07:30am 9.1 8.8 8.5 96 0.3 CALM 0 0 0 0 1022.7 1022.7 0.0
05/07:00am 7.3 4.8 6.7 96 0.3 SSW 9 9 5 5 1022.5 1022.5 0.0
05/06:38am 7.3 6.5 6.7 96 0.3 CALM 0 0 0 0 1022.2 1022.2 0.0
05/06:30am 6.8 5.9 6.1 95 0.3 CALM 0 0 0 0 1022.1 1022.1 0.0
05/06:08am 6.9 6.0 6.0 94 0.4 CALM 0 0 0 0 1021.9 1021.9 0.0
05/05:30am 8.0 6.6 7.2 95 0.4 SW 4 6 2 3 1021.6 1021.6 0.0
05/05:00am 7.5 6.7 6.6 94 0.4 CALM 0 0 0 0 1021.4 1021.4 0.0
05/04:30am 8.0 7.4 7.2 95 0.4 CALM 0 0 0 0 1021.2 1021.2 0.0
05/04:00am 8.2 7.6 7.6 96 0.3 CALM 0 0 0 0 1021.2 1021.2 0.0
05/03:30am 8.2 7.6 7.6 96 0.3 CALM 0 0 0 0 1021.3 1021.3 0.0
05/03:02am 7.3 6.4 6.2 93 0.5 CALM 0 0 0 0 1021.5 1021.5 0.0
05/03:00am 7.8 7.1 6.9 94 0.4 CALM 0 4 0 2 1021.5 1021.5 0.0
05/02:30am 8.9 8.5 8.1 95 0.4 CALM 0 0 0 0 1021.7 1021.7 0.0
05/02:00am 9.3 8.9 8.4 94 0.4 CALM 0 0 0 0 1021.9 1021.9 0.0
05/01:30am 9.6 9.0 8.8 95 0.4 SE 2 6 1 3 1022.0 1022.0 0.0
05/01:00am 9.5 9.2 8.7 95 0.4 CALM 0 2 0 1 1022.2 1022.2 0.0
05/12:30am 9.1 8.7 8.2 94 0.4 CALM 0 0 0 0 1022.3 1022.3 0.0
 
Date/Time
EST
Temp
°C
App
Temp
°C
Dew
Point
Rel
Hum
%
Delta-T
°C
Wind Press
QNH
hPa
Press
MSL
hPa
Rain
since 9 am
mm
Dir
 
Spd
km/h
Gust
km/h
Spd
kts
Gust
kts
04/11:30pm 9.4 9.0 8.3 93 0.5 CALM 0 0 0 0 1022.3 1022.3 0.0
04/11:00pm 9.6 8.1 8.5 93 0.5 S 6 7 3 4 1022.4 1022.4 0.0
04/10:30pm 9.9 9.6 8.7 92 0.6 CALM 0 6 0 3 1022.4 1022.4 0.0
04/10:00pm 10.4 8.9 9.2 92 0.6 SE 7 9 4 5 1022.4 1022.4 0.0
04/09:30pm 9.6 8.0 7.9 89 0.8 SSW 6 6 3 3 1022.4 1022.4 0.0
04/09:00pm 10.8 10.2 8.9 88 0.9 S 2 9 1 5 1022.4 1022.4 0.0
04/08:30pm 12.8 13.0 10.5 86 1.2 CALM 0 0 0 0 1022.2 1022.2 0.0
04/08:00pm 13.7 14.0 11.0 84 1.4 CALM 0 0 0 0 1022.0 1022.0 0.0
04/07:30pm 12.8 12.6 10.3 85 1.3 N 2 6 1 3 1021.8 1021.8 0.0
04/07:00pm 13.2 13.0 10.6 84 1.4 NE 2 6 1 3 1021.4 1021.4 0.0
04/06:30pm 13.7 12.5 10.3 80 1.8 ENE 7 9 4 5 1021.0 1021.0 0.0
04/06:00pm 14.7 13.2 10.7 77 2.1 ENE 9 11 5 6 1020.6 1020.6 0.0
04/05:30pm 15.9 15.0 9.3 65 3.4 NNW 4 11 2 6 1020.4 1020.4 0.0
04/05:00pm 17.3 15.9 9.7 61 4.0 NNW 7 9 4 5 1020.2 1020.2 0.0
04/04:30pm 19.3 17.8 10.6 57 4.7 NW 9 11 5 6 1020.2 1020.2 0.0
04/04:00pm 20.5 19.5 10.3 52 5.5 W 6 9 3 5 1020.2 1020.2 0.0
04/03:30pm 19.3 18.4 10.6 57 4.7 W 6 7 3 4 1020.5 1020.5 0.0
04/03:00pm 19.5 18.5 10.2 55 5.0 WNW 6 9 3 5 1020.8 1020.8 0.0
04/02:30pm 20.9 18.9 10.1 50 5.8 NW 11 15 6 8 1020.7 1020.7 0.0
04/02:00pm 20.5 18.8 9.7 50 5.8 W 9 19 5 10 1020.7 1020.7 0.0
04/01:30pm 20.5 18.8 9.7 50 5.8 W 9 17 5 9 1021.0 1021.0 0.0
04/01:00pm 20.1 18.3 9.4 50 5.7 W 9 15 5 8 1021.4 1021.4 0.0
04/12:30pm 19.7 17.9 9.3 51 5.5 W 9 17 5 9 1021.8 1021.8 0.0
04/12:00pm 19.3 17.5 9.5 53 5.2 WSW 9 15 5 8 1022.5 1022.5 0.0
04/11:30am 18.6 16.4 9.4 55 4.8 W 11 13 6 7 1023.0 1023.0 0.0
04/11:00am 17.6 15.2 8.5 55 4.7 W 11 19 6 10 1023.5 1023.5 0.0
04/10:30am 16.3 13.4 8.0 58 4.2 WSW 13 15 7 8 1023.9 1023.9 0.0
04/10:00am 15.8 12.6 8.5 62 3.7 WSW 15 19 8 10 1024.2 1024.2 0.0
04/09:30am 14.9 11.7 8.4 65 3.3 WSW 15 20 8 11 1024.4 1024.4 0.0
04/09:00am 13.0 10.0 7.9 71 2.5 WSW 13 19 7 10 1024.5 1024.5 0.0
04/08:30am 12.3 10.1 8.0 75 2.1 SW 9 13 5 7 1024.3 1024.3 0.0
04/08:00am 11.3 9.4 7.6 78 1.8 WSW 7 9 4 5 1024.0 1024.0 0.0
04/07:30am 9.8 7.4 6.9 82 1.4 SW 9 11 5 6 1023.8 1023.8 0.0
04/07:00am 8.7 6.5 6.3 85 1.1 S 7 9 4 5 1023.5 1023.5 0.0
04/06:30am 8.9 7.0 6.7 86 1.0 SW 6 9 3 5 1023.2 1023.2 0.0
04/06:00am 8.2 5.6 6.2 87 0.9 WSW 9 13 5 7 1023.1 1023.1 0.0
04/05:30am 8.4 6.2 6.4 87 0.9 SSW 7 9 4 5 1022.8 1022.8 0.0
04/05:00am 8.2 7.5 6.8 91 0.6 CALM 0 0 0 0 1022.8 1022.8 0.0
04/04:30am 8.4 6.3 6.5 88 0.9 SW 7 9 4 5 1022.4 1022.4 0.0
04/04:00am 9.0 6.6 6.8 86 1.0 S 9 11 5 6 1022.6 1022.6 0.0
04/03:30am 9.5 7.5 7.1 85 1.1 SSE 7 9 4 5 1022.8 1022.8 0.0
04/03:00am 10.0 7.3 7.4 84 1.2 SSW 11 15 6 8 1022.8 1022.8 0.0
04/02:30am 9.6 6.8 6.9 83 1.3 SSW 11 13 6 7 1022.9 1022.9 0.0
04/02:00am 9.0 8.3 6.8 86 1.0 CALM 0 9 0 5 1023.0 1023.0 0.0
04/01:30am 9.4 6.6 6.8 84 1.2 SW 11 13 6 7 1022.9 1022.9 0.0
04/01:00am 9.5 7.5 7.1 85 1.1 SW 7 11 4 6 1022.9 1022.9 0.0
04/12:30am 9.4 6.7 7.5 88 0.9 SW 11 15 6 8 1023.0 1023.0 0.0
04/12:00am 9.4 7.9 7.0 85 1.1 S 4 7 2 4 1023.1 1023.1 0.0
 
Date/Time
EST
Temp
°C
App
Temp
°C
Dew
Point
Rel
Hum
%
Delta-T
°C
Wind Press
QNH
hPa
Press
MSL
hPa
Rain
since 9 am
mm
Dir
 
Spd
km/h
Gust
km/h
Spd
kts
Gust
kts
03/11:30pm 9.1 8.5 7.2 88 0.9 CALM 0 0 0 0 1023.4 1023.4 0.0
03/11:00pm 9.5 7.0 6.6 82 1.3 SSW 9 9 5 5 1023.5 1023.5 0.0
03/10:30pm 8.2 6.1 5.8 85 1.1 SSW 6 6 3 3 1023.7 1023.7 0.0
03/10:00pm 10.4 9.8 7.3 81 1.5 CALM 0 0 0 0 1023.9 1023.9 0.0
03/09:30pm 9.3 8.1 6.6 83 1.3 WSW 2 6 1 3 1023.8 1023.8 0.0
03/09:00pm 11.4 9.0 6.9 74 2.1 S 9 11 5 6 1023.4 1023.4 0.0
03/08:30pm 11.6 9.5 6.7 72 2.3 S 7 9 4 5 1023.4 1023.4 0.0
03/08:00pm 12.4 10.1 7.5 72 2.4 S 9 11 5 6 1023.5 1023.5 0.0
03/07:30pm 12.8 10.5 7.3 69 2.7 S 9 11 5 6 1023.2 1023.2 0.0
03/07:00pm 13.3 11.0 7.5 68 2.8 SSW 9 9 5 5 1022.8 1022.8 0.0
03/06:30pm 13.9 11.2 7.4 65 3.2 S 11 15 6 8 1022.4 1022.4 0.0
03/06:00pm 14.7 12.0 7.5 62 3.5 S 11 15 6 8 1022.2 1022.2 0.0
03/05:30pm 15.3 12.7 7.6 60 3.8 S 11 15 6 8 1021.8 1021.8 0.0
03/05:00pm 16.3 14.0 7.3 55 4.5 S 9 13 5 7 1021.7 1021.7 0.0
03/04:30pm 17.9 15.1 7.0 49 5.4 SSW 11 15 6 8 1021.4 1021.4 0.0
03/04:00pm 18.6 15.0 6.8 46 5.9 SSW 15 19 8 10 1021.3 1021.3 0.0
03/03:30pm 19.2 15.7 7.0 45 6.2 SSW 15 20 8 11 1021.0 1021.0 0.0
03/03:00pm 19.5 15.9 6.6 43 6.4 SSW 15 17 8 9 1021.0 1021.0 0.0
03/02:30pm 19.4 15.7 6.2 42 6.6 S 15 22 8 12 1020.8 1020.8 0.0
03/02:00pm 19.3 15.2 6.1 42 6.5 SSW 17 24 9 13 1020.7 1020.7 0.0
03/01:30pm 19.2 14.5 5.3 40 6.8 SSW 19 26 10 14 1020.8 1020.8 0.0
03/01:00pm 19.2 15.4 5.6 41 6.6 S 15 24 8 13 1021.2 1021.2 0.0
03/12:30pm 19.6 15.9 6.3 42 6.6 SSW 15 22 8 12 1021.4 1021.4 0.0
03/12:00pm 18.4 14.8 4.9 41 6.5 SSW 13 20 7 11 1021.9 1021.9 0.0
03/11:30am 17.6 13.4 3.9 40 6.4 SW 15 20 8 11 1022.3 1022.3 0.0
03/11:00am 16.8 13.5 6.3 50 5.1 WSW 13 20 7 11 1022.7 1022.7 0.0
03/10:30am 15.3 11.7 4.9 50 4.9 WSW 13 20 7 11 1023.1 1023.1 0.0
03/10:00am 14.1 9.7 4.9 54 4.3 WSW 17 20 9 11 1023.3 1023.3 0.0
03/09:30am 13.1 9.5 5.0 58 3.7 WSW 13 19 7 10 1023.3 1023.3 0.0
03/09:00am 11.4 7.3 4.4 62 3.1 WSW 15 19 8 10 1023.3 1023.3 0.0
03/08:30am 10.0 5.9 4.4 68 2.5 WSW 15 20 8 11 1023.0 1023.0 0.0
03/08:00am 8.7 5.8 4.7 76 1.8 SW 9 13 5 7 1022.9 1022.9 0.0
03/07:30am 7.4 4.5 4.4 81 1.3 SSW 9 13 5 7 1022.6 1022.6 0.0
03/07:00am 5.9 2.8 3.6 85 1.0 SSW 9 11 5 6 1022.2 1022.2 0.0
03/06:30am 5.9 2.8 3.4 84 1.0 SSW 9 13 5 7 1021.9 1021.9 0.0
03/06:00am 5.9 2.4 3.4 84 1.0 SW 11 15 6 8 1021.3 1021.3 0.0
03/05:30am 6.7 2.9 3.9 82 1.2 SW 13 17 7 9 1021.0 1021.0 0.0
03/05:00am 6.7 3.2 3.7 81 1.3 SW 11 17 6 9 1020.7 1020.7 0.0
03/04:30am 7.0 3.6 4.1 82 1.2 WSW 11 19 6 10 1020.4 1020.4 0.0
03/04:00am 7.2 3.1 4.3 82 1.2 WSW 15 20 8 11 1020.5 1020.5 0.0
03/03:30am 7.5 3.8 4.3 80 1.4 WSW 13 19 7 10 1020.4 1020.4 0.0
03/03:00am 7.8 3.7 4.6 80 1.4 WSW 15 20 8 11 1020.4 1020.4 0.0
03/02:30am 7.8 3.7 4.6 80 1.4 WSW 15 17 8 9 1020.6 1020.6 0.0
03/02:00am 7.9 4.2 4.3 78 1.6 SW 13 17 7 9 1020.6 1020.6 0.0
03/01:30am 8.4 4.3 4.4 76 1.8 WSW 15 20 8 11 1020.5 1020.5 0.0
03/01:00am 9.1 4.7 4.5 73 2.0 WSW 17 22 9 12 1020.5 1020.5 0.0
03/12:30am 9.7 4.3 4.7 71 2.2 W 22 30 12 16 1020.5 1020.5 0.0
03/12:00am 9.8 4.4 4.4 69 2.4 W 22 32 12 17 1020.4 1020.4 0.0
 
Date/Time
EST
Temp
°C
App
Temp
°C
Dew
Point
Rel
Hum
%
Delta-T
°C
Wind Press
QNH
hPa
Press
MSL
hPa
Rain
since 9 am
mm
Dir
 
Spd
km/h
Gust
km/h
Spd
kts
Gust
kts
02/11:30pm 10.2 4.4 4.6 68 2.5 W 24 33 13 18 1020.5 1020.5 0.0
02/11:00pm 10.5 5.7 4.4 66 2.7 WSW 19 28 10 15 1020.8 1020.8 0.0
02/10:30pm 10.9 5.0 4.1 63 3.0 W 24 35 13 19 1020.7 1020.7 0.0
02/10:00pm 11.7 6.2 4.2 60 3.4 W 22 35 12 19 1020.4 1020.4 0.0
02/09:30pm 11.6 6.5 4.1 60 3.4 W 20 28 11 15 1019.9 1019.9 0.0
02/09:00pm 12.0 6.8 3.8 57 3.7 W 20 28 11 15 1019.9 1019.9 0.0
02/08:30pm 12.7 6.7 3.6 54 4.1 W 24 32 13 17 1019.9 1019.9 0.0
02/08:00pm 12.8 6.1 3.5 53 4.1 W 28 35 15 19 1019.6 1019.6 0.0
02/07:30pm 13.2 6.8 3.3 51 4.4 W 26 35 14 19 1019.0 1019.0 0.0
02/07:00pm 13.7 7.3 3.2 49 4.7 W 26 35 14 19 1018.9 1018.9 0.0
02/06:30pm 14.4 7.9 2.9 46 5.1 W 26 35 14 19 1018.8 1018.8 0.0
02/06:00pm 14.5 8.4 3.0 46 5.1 W 24 32 13 17 1018.6 1018.6 0.0
02/05:30pm 15.3 8.7 2.1 41 5.8 W 26 33 14 18 1018.5 1018.5 0.0
02/05:00pm 16.0 9.7 1.3 37 6.4 W 24 32 13 17 1018.0 1018.0 0.0
02/04:30pm 17.0 10.8 2.2 37 6.7 W 24 32 13 17 1018.2 1018.2 0.0
02/04:00pm 17.8 11.5 1.7 34 7.2 WNW 24 35 13 19 1018.2 1018.2 0.0
02/03:30pm 17.7 12.1 1.2 33 7.3 WNW 20 30 11 16 1017.9 1017.9 0.0
02/03:00pm 19.1 12.6 2.5 33 7.6 W 26 35 14 19 1018.0 1018.0 0.0
02/02:30pm 19.5 13.4 2.8 33 7.8 W 24 35 13 19 1018.2 1018.2 0.0

Other Formats:

Comma delimited format used in spreadsheet applications
http://www.bom.gov.au/fwo/IDQ60801/IDQ60801.94575.axf

JavaScript Object Notation format (JSON) in row-major order
http://www.bom.gov.au/fwo/IDQ60801/IDQ60801.94575.json